sensor_id;sensor_type;location;lat;lon;timestamp;pressure;altitude;pressure_sealevel;temperature;humidity
40708;BME280;26392;42.696;23.350;2023-06-22T00:01:11;95722.50;;;18.60;100.00
40708;BME280;26392;42.696;23.350;2023-06-22T00:03:37;95726.06;;;18.61;100.00
40708;BME280;26392;42.696;23.350;2023-06-22T00:06:02;95724.50;;;18.54;100.00
40708;BME280;26392;42.696;23.350;2023-06-22T00:08:27;95732.69;;;18.60;100.00
40708;BME280;26392;42.696;23.350;2023-06-22T00:10:53;95718.06;;;18.59;100.00
40708;BME280;26392;42.696;23.350;2023-06-22T00:13:18;95713.91;;;18.62;100.00
40708;BME280;26392;42.696;23.350;2023-06-22T00:15:44;95720.56;;;18.61;100.00
40708;BME280;26392;42.696;23.350;2023-06-22T00:18:10;95716.28;;;18.49;100.00
40708;BME280;26392;42.696;23.350;2023-06-22T00:20:36;95717.91;;;18.50;100.00
40708;BME280;26392;42.696;23.350;2023-06-22T00:23:03;95713.31;;;18.46;100.00
40708;BME280;26392;42.696;23.350;2023-06-22T00:25:42;95720.16;;;18.48;100.00
40708;BME280;26392;42.696;23.350;2023-06-22T00:28:08;95700.41;;;18.41;100.00
40708;BME280;26392;42.696;23.350;2023-06-22T00:30:34;95705.91;;;18.41;100.00
40708;BME280;26392;42.696;23.350;2023-06-22T00:33:00;95703.16;;;18.41;100.00
40708;BME280;26392;42.696;23.350;2023-06-22T00:35:26;95695.16;;;18.40;100.00
40708;BME280;26392;42.696;23.350;2023-06-22T00:37:55;95706.50;;;18.38;100.00
40708;BME280;26392;42.696;23.350;2023-06-22T00:40:32;95701.53;;;18.40;100.00
40708;BME280;26392;42.696;23.350;2023-06-22T00:42:58;95697.50;;;18.51;100.00
40708;BME280;26392;42.696;23.350;2023-06-22T00:45:24;95695.25;;;18.53;100.00
40708;BME280;26392;42.696;23.350;2023-06-22T00:47:53;95705.47;;;18.53;100.00
40708;BME280;26392;42.696;23.350;2023-06-22T00:50:21;95704.19;;;18.45;100.00
40708;BME280;26392;42.696;23.350;2023-06-22T00:52:57;95702.81;;;18.24;100.00
40708;BME280;26392;42.696;23.350;2023-06-22T00:55:24;95711.50;;;18.12;100.00
40708;BME280;26392;42.696;23.350;2023-06-22T00:57:51;95712.59;;;18.11;100.00
40708;BME280;26392;42.696;23.350;2023-06-22T01:00:22;95706.28;;;18.10;100.00
40708;BME280;26392;42.696;23.350;2023-06-22T01:02:50;95713.69;;;18.15;100.00
40708;BME280;26392;42.696;23.350;2023-06-22T01:05:18;95723.31;;;18.18;100.00
40708;BME280;26392;42.696;23.350;2023-06-22T01:08:04;95722.34;;;18.27;100.00
40708;BME280;26392;42.696;23.350;2023-06-22T01:16:17;95713.09;;;18.18;100.00
40708;BME280;26392;42.696;23.350;2023-06-22T01:18:46;95714.31;;;18.07;100.00
40708;BME280;26392;42.696;23.350;2023-06-22T01:21:15;95729.84;;;17.98;100.00
40708;BME280;26392;42.696;23.350;2023-06-22T01:29:33;95726.94;;;17.84;100.00
40708;BME280;26392;42.696;23.350;2023-06-22T01:32:02;95708.56;;;17.79;100.00
40708;BME280;26392;42.696;23.350;2023-06-22T01:34:30;95729.16;;;17.87;100.00
40708;BME280;26392;42.696;23.350;2023-06-22T01:36:58;95728.84;;;17.88;100.00
40708;BME280;26392;42.696;23.350;2023-06-22T01:39:24;95714.88;;;17.80;100.00
40708;BME280;26392;42.696;23.350;2023-06-22T01:41:50;95731.59;;;17.88;100.00
40708;BME280;26392;42.696;23.350;2023-06-22T01:44:16;95734.41;;;17.83;100.00
40708;BME280;26392;42.696;23.350;2023-06-22T01:46:42;95740.72;;;17.84;100.00
40708;BME280;26392;42.696;23.350;2023-06-22T01:49:08;95728.88;;;17.83;100.00
40708;BME280;26392;42.696;23.350;2023-06-22T01:51:34;95708.91;;;17.67;100.00
40708;BME280;26392;42.696;23.350;2023-06-22T01:54:01;95738.06;;;17.74;100.00
40708;BME280;26392;42.696;23.350;2023-06-22T01:56:27;95742.44;;;17.75;100.00
40708;BME280;26392;42.696;23.350;2023-06-22T02:01:41;95749.47;;;17.62;100.00
40708;BME280;26392;42.696;23.350;2023-06-22T02:04:13;95754.41;;;17.65;100.00
40708;BME280;26392;42.696;23.350;2023-06-22T02:06:41;95752.50;;;17.60;100.00
40708;BME280;26392;42.696;23.350;2023-06-22T02:09:11;95754.97;;;17.62;100.00
40708;BME280;26392;42.696;23.350;2023-06-22T02:11:38;95759.13;;;17.59;100.00
40708;BME280;26392;42.696;23.350;2023-06-22T02:14:05;95757.16;;;17.65;100.00
40708;BME280;26392;42.696;23.350;2023-06-22T02:16:32;95744.19;;;17.65;100.00
40708;BME280;26392;42.696;23.350;2023-06-22T02:19:01;95743.66;;;17.63;100.00
40708;BME280;26392;42.696;23.350;2023-06-22T02:21:28;95748.22;;;17.44;100.00
40708;BME280;26392;42.696;23.350;2023-06-22T02:23:54;95747.25;;;17.30;100.00
40708;BME280;26392;42.696;23.350;2023-06-22T02:26:20;95745.06;;;17.27;100.00
40708;BME280;26392;42.696;23.350;2023-06-22T02:28:45;95748.94;;;17.26;100.00
40708;BME280;26392;42.696;23.350;2023-06-22T02:31:11;95737.38;;;17.23;100.00
40708;BME280;26392;42.696;23.350;2023-06-22T02:33:36;95736.84;;;17.21;100.00
40708;BME280;26392;42.696;23.350;2023-06-22T02:36:02;95734.91;;;17.22;100.00
40708;BME280;26392;42.696;23.350;2023-06-22T02:38:34;95743.47;;;17.20;100.00
40708;BME280;26392;42.696;23.350;2023-06-22T02:41:01;95737.16;;;17.20;100.00
40708;BME280;26392;42.696;23.350;2023-06-22T02:43:27;95742.38;;;17.16;100.00
40708;BME280;26392;42.696;23.350;2023-06-22T02:45:53;95746.28;;;17.10;100.00
40708;BME280;26392;42.696;23.350;2023-06-22T02:48:19;95740.25;;;17.08;100.00
40708;BME280;26392;42.696;23.350;2023-06-22T02:50:44;95746.84;;;17.12;100.00
40708;BME280;26392;42.696;23.350;2023-06-22T02:53:09;95750.34;;;17.23;100.00
40708;BME280;26392;42.696;23.350;2023-06-22T02:55:35;95756.63;;;17.29;100.00
40708;BME280;26392;42.696;23.350;2023-06-22T02:58:00;95756.09;;;17.27;100.00
40708;BME280;26392;42.696;23.350;2023-06-22T03:00:30;95750.84;;;17.25;100.00
40708;BME280;26392;42.696;23.350;2023-06-22T03:02:57;95751.72;;;17.20;100.00
40708;BME280;26392;42.696;23.350;2023-06-22T03:05:23;95750.31;;;17.28;100.00
40708;BME280;26392;42.696;23.350;2023-06-22T03:07:48;95754.44;;;17.26;100.00
40708;BME280;26392;42.696;23.350;2023-06-22T03:10:15;95752.22;;;17.28;100.00
40708;BME280;26392;42.696;23.350;2023-06-22T03:12:41;95755.47;;;17.35;100.00
40708;BME280;26392;42.696;23.350;2023-06-22T03:15:08;95773.28;;;17.48;100.00
40708;BME280;26392;42.696;23.350;2023-06-22T03:17:35;95755.41;;;17.45;100.00
40708;BME280;26392;42.696;23.350;2023-06-22T03:20:04;95769.03;;;17.60;100.00
40708;BME280;26392;42.696;23.350;2023-06-22T03:22:40;95780.84;;;17.66;100.00
40708;BME280;26392;42.696;23.350;2023-06-22T03:25:09;95780.22;;;17.79;100.00
40708;BME280;26392;42.696;23.350;2023-06-22T03:27:36;95786.91;;;17.97;100.00
40708;BME280;26392;42.696;23.350;2023-06-22T03:30:02;95777.00;;;17.96;100.00
40708;BME280;26392;42.696;23.350;2023-06-22T03:32:28;95786.28;;;18.05;100.00
40708;BME280;26392;42.696;23.350;2023-06-22T03:34:53;95779.31;;;18.13;100.00
40708;BME280;26392;42.696;23.350;2023-06-22T03:37:19;95789.03;;;18.34;100.00
40708;BME280;26392;42.696;23.350;2023-06-22T03:39:44;95779.84;;;18.39;100.00
40708;BME280;26392;42.696;23.350;2023-06-22T03:42:10;95785.22;;;18.54;100.00
40708;BME280;26392;42.696;23.350;2023-06-22T03:44:35;95792.84;;;18.63;100.00
40708;BME280;26392;42.696;23.350;2023-06-22T03:47:02;95790.31;;;18.66;100.00
40708;BME280;26392;42.696;23.350;2023-06-22T03:49:28;95782.69;;;18.58;100.00
40708;BME280;26392;42.696;23.350;2023-06-22T03:51:53;95800.16;;;18.72;100.00
40708;BME280;26392;42.696;23.350;2023-06-22T03:54:19;95805.66;;;18.77;100.00
40708;BME280;26392;42.696;23.350;2023-06-22T03:56:44;95809.59;;;18.90;100.00
40708;BME280;26392;42.696;23.350;2023-06-22T03:59:09;95809.72;;;19.04;100.00
40708;BME280;26392;42.696;23.350;2023-06-22T04:01:35;95802.00;;;19.01;100.00
40708;BME280;26392;42.696;23.350;2023-06-22T04:04:02;95808.19;;;18.93;100.00
40708;BME280;26392;42.696;23.350;2023-06-22T04:06:27;95812.03;;;18.97;100.00
40708;BME280;26392;42.696;23.350;2023-06-22T04:08:52;95807.50;;;19.25;100.00
40708;BME280;26392;42.696;23.350;2023-06-22T04:11:18;95811.22;;;19.72;100.00
40708;BME280;26392;42.696;23.350;2023-06-22T04:13:43;95796.00;;;20.35;100.00
40708;BME280;26392;42.696;23.350;2023-06-22T04:16:09;95787.91;;;21.21;100.00
40708;BME280;26392;42.696;23.350;2023-06-22T04:18:34;95789.31;;;21.69;100.00
40708;BME280;26392;42.696;23.350;2023-06-22T04:21:00;95785.75;;;22.53;100.00
40708;BME280;26392;42.696;23.350;2023-06-22T04:23:25;95768.34;;;23.36;100.00
40708;BME280;26392;42.696;23.350;2023-06-22T04:25:50;95777.81;;;24.13;97.92
40708;BME280;26392;42.696;23.350;2023-06-22T04:28:16;95767.97;;;24.72;89.60
40708;BME280;26392;42.696;23.350;2023-06-22T04:30:42;95760.34;;;25.19;88.56
40708;BME280;26392;42.696;23.350;2023-06-22T04:33:15;95767.59;;;25.83;83.81
40708;BME280;26392;42.696;23.350;2023-06-22T04:35:41;95770.22;;;26.34;77.98
40708;BME280;26392;42.696;23.350;2023-06-22T04:38:07;95775.91;;;26.59;73.85
40708;BME280;26392;42.696;23.350;2023-06-22T04:40:33;95775.56;;;26.97;69.12
40708;BME280;26392;42.696;23.350;2023-06-22T04:42:58;95772.19;;;27.40;68.00
40708;BME280;26392;42.696;23.350;2023-06-22T04:45:28;95764.88;;;27.76;65.97
40708;BME280;26392;42.696;23.350;2023-06-22T04:47:54;95766.47;;;28.18;62.61
40708;BME280;26392;42.696;23.350;2023-06-22T04:50:20;95767.72;;;28.20;60.26
40708;BME280;26392;42.696;23.350;2023-06-22T04:52:47;95773.59;;;28.15;61.68
40708;BME280;26392;42.696;23.350;2023-06-22T04:55:13;95794.88;;;28.76;59.95
40708;BME280;26392;42.696;23.350;2023-06-22T04:57:44;95792.91;;;29.24;56.40
40708;BME280;26392;42.696;23.350;2023-06-22T05:00:15;95797.88;;;29.66;54.60
40708;BME280;26392;42.696;23.350;2023-06-22T05:02:44;95787.75;;;29.61;52.50
40708;BME280;26392;42.696;23.350;2023-06-22T05:05:10;95783.06;;;29.50;52.90
40708;BME280;26392;42.696;23.350;2023-06-22T05:07:42;95788.31;;;29.51;52.61
40708;BME280;26392;42.696;23.350;2023-06-22T05:10:10;95783.34;;;29.80;52.00
40708;BME280;26392;42.696;23.350;2023-06-22T05:12:37;95779.22;;;30.51;50.09
40708;BME280;26392;42.696;23.350;2023-06-22T05:15:03;95769.94;;;30.93;48.02
40708;BME280;26392;42.696;23.350;2023-06-22T05:17:29;95786.47;;;31.44;46.34
40708;BME280;26392;42.696;23.350;2023-06-22T05:19:55;95777.31;;;32.08;44.85
40708;BME280;26392;42.696;23.350;2023-06-22T05:22:20;95780.56;;;32.10;44.05
40708;BME280;26392;42.696;23.350;2023-06-22T05:24:46;95789.06;;;31.87;44.37
40708;BME280;26392;42.696;23.350;2023-06-22T05:27:12;95780.16;;;31.51;44.08
40708;BME280;26392;42.696;23.350;2023-06-22T05:29:38;95783.41;;;31.30;44.57
40708;BME280;26392;42.696;23.350;2023-06-22T05:32:04;95788.31;;;31.10;45.83
40708;BME280;26392;42.696;23.350;2023-06-22T05:34:29;95792.09;;;30.95;45.91
40708;BME280;26392;42.696;23.350;2023-06-22T05:36:55;95798.41;;;30.26;48.61
40708;BME280;26392;42.696;23.350;2023-06-22T05:39:20;95800.28;;;28.85;51.83
40708;BME280;26392;42.696;23.350;2023-06-22T05:41:46;95794.00;;;27.75;56.18
40708;BME280;26392;42.696;23.350;2023-06-22T05:44:12;95802.59;;;26.81;62.40
40708;BME280;26392;42.696;23.350;2023-06-22T05:46:41;95806.03;;;26.20;71.56
40708;BME280;26392;42.696;23.350;2023-06-22T05:49:09;95820.84;;;25.28;74.73
40708;BME280;26392;42.696;23.350;2023-06-22T05:51:35;95812.19;;;24.82;82.18
40708;BME280;26392;42.696;23.350;2023-06-22T05:54:00;95800.53;;;24.33;86.00
40708;BME280;26392;42.696;23.350;2023-06-22T05:56:26;95806.97;;;24.07;89.63
40708;BME280;26392;42.696;23.350;2023-06-22T05:58:51;95806.00;;;23.77;91.88
40708;BME280;26392;42.696;23.350;2023-06-22T06:01:16;95803.06;;;23.82;92.30
40708;BME280;26392;42.696;23.350;2023-06-22T06:03:42;95790.47;;;23.76;89.73
40708;BME280;26392;42.696;23.350;2023-06-22T06:06:07;95796.34;;;23.83;92.79
40708;BME280;26392;42.696;23.350;2023-06-22T06:08:33;95796.16;;;23.88;93.95
40708;BME280;26392;42.696;23.350;2023-06-22T06:10:59;95794.72;;;23.82;95.03
40708;BME280;26392;42.696;23.350;2023-06-22T06:13:24;95793.72;;;24.04;98.14
40708;BME280;26392;42.696;23.350;2023-06-22T06:15:49;95793.41;;;24.06;97.31
40708;BME280;26392;42.696;23.350;2023-06-22T06:18:20;95776.81;;;24.18;92.79
40708;BME280;26392;42.696;23.350;2023-06-22T06:20:45;95793.47;;;24.35;94.10
40708;BME280;26392;42.696;23.350;2023-06-22T06:23:11;95793.47;;;24.35;90.76
40708;BME280;26392;42.696;23.350;2023-06-22T06:25:36;95790.84;;;24.39;91.14
40708;BME280;26392;42.696;23.350;2023-06-22T06:28:02;95791.97;;;24.55;89.11
40708;BME280;26392;42.696;23.350;2023-06-22T06:30:28;95795.69;;;24.68;89.90
40708;BME280;26392;42.696;23.350;2023-06-22T06:32:53;95793.16;;;24.84;85.39
40708;BME280;26392;42.696;23.350;2023-06-22T06:35:19;95788.00;;;24.95;84.42
40708;BME280;26392;42.696;23.350;2023-06-22T06:37:48;95780.81;;;24.94;85.63
40708;BME280;26392;42.696;23.350;2023-06-22T06:40:16;95782.00;;;25.22;83.56
40708;BME280;26392;42.696;23.350;2023-06-22T06:42:46;95773.31;;;25.45;80.53
40708;BME280;26392;42.696;23.350;2023-06-22T06:45:12;95773.25;;;25.75;80.27
40708;BME280;26392;42.696;23.350;2023-06-22T06:47:39;95767.41;;;26.22;78.99
40708;BME280;26392;42.696;23.350;2023-06-22T06:50:05;95772.22;;;26.46;71.23
40708;BME280;26392;42.696;23.350;2023-06-22T06:52:31;95771.69;;;26.65;70.42
40708;BME280;26392;42.696;23.350;2023-06-22T06:54:58;95764.16;;;25.99;73.96
40708;BME280;26392;42.696;23.350;2023-06-22T06:57:23;95756.19;;;26.09;76.32
40708;BME280;26392;42.696;23.350;2023-06-22T06:59:49;95759.88;;;25.80;81.64
40708;BME280;26392;42.696;23.350;2023-06-22T07:02:15;95766.50;;;25.76;79.37
40708;BME280;26392;42.696;23.350;2023-06-22T07:04:41;95758.88;;;25.64;83.09
40708;BME280;26392;42.696;23.350;2023-06-22T07:07:06;95758.88;;;25.64;80.97
40708;BME280;26392;42.696;23.350;2023-06-22T07:09:32;95772.75;;;25.73;80.22
40708;BME280;26392;42.696;23.350;2023-06-22T07:11:57;95766.50;;;25.76;80.81
40708;BME280;26392;42.696;23.350;2023-06-22T07:14:23;95765.22;;;25.94;79.05
40708;BME280;26392;42.696;23.350;2023-06-22T07:16:49;95768.34;;;25.72;79.19
40708;BME280;26392;42.696;23.350;2023-06-22T07:19:14;95767.16;;;25.73;82.95
40708;BME280;26392;42.696;23.350;2023-06-22T07:21:40;95758.22;;;25.88;80.91
40708;BME280;26392;42.696;23.350;2023-06-22T07:24:06;95762.75;;;25.72;81.14
40708;BME280;26392;42.696;23.350;2023-06-22T07:26:32;95767.28;;;25.76;82.30
40708;BME280;26392;42.696;23.350;2023-06-22T07:28:58;95759.41;;;25.99;86.29
40708;BME280;26392;42.696;23.350;2023-06-22T07:31:25;95755.03;;;26.10;84.49
40708;BME280;26392;42.696;23.350;2023-06-22T07:33:50;95763.88;;;26.12;80.50
40708;BME280;26392;42.696;23.350;2023-06-22T07:36:17;95760.75;;;26.14;78.57
40708;BME280;26392;42.696;23.350;2023-06-22T07:38:42;95756.31;;;26.13;79.82
40708;BME280;26392;42.696;23.350;2023-06-22T07:41:08;95765.38;;;26.10;81.74
40708;BME280;26392;42.696;23.350;2023-06-22T07:43:33;95768.69;;;26.24;80.60
40708;BME280;26392;42.696;23.350;2023-06-22T07:46:02;95750.34;;;26.36;78.77
40708;BME280;26392;42.696;23.350;2023-06-22T07:48:28;95763.03;;;26.45;77.20
40708;BME280;26392;42.696;23.350;2023-06-22T07:50:53;95764.59;;;26.79;74.15
40708;BME280;26392;42.696;23.350;2023-06-22T07:53:19;95765.66;;;26.99;76.41
40708;BME280;26392;42.696;23.350;2023-06-22T07:55:45;95760.75;;;27.45;69.76
40708;BME280;26392;42.696;23.350;2023-06-22T07:58:10;95750.38;;;27.86;69.40
40708;BME280;26392;42.696;23.350;2023-06-22T08:00:35;95758.72;;;28.27;67.54
40708;BME280;26392;42.696;23.350;2023-06-22T08:03:01;95754.13;;;28.34;66.19
40708;BME280;26392;42.696;23.350;2023-06-22T08:05:28;95749.06;;;28.40;64.21
40708;BME280;26392;42.696;23.350;2023-06-22T08:07:54;95749.75;;;28.37;65.03
40708;BME280;26392;42.696;23.350;2023-06-22T08:10:20;95747.22;;;27.88;69.89
40708;BME280;26392;42.696;23.350;2023-06-22T08:12:46;95743.66;;;28.03;69.47
40708;BME280;26392;42.696;23.350;2023-06-22T08:15:11;95742.78;;;28.15;67.61
40708;BME280;26392;42.696;23.350;2023-06-22T08:17:37;95731.50;;;28.27;69.49
40708;BME280;26392;42.696;23.350;2023-06-22T08:20:04;95731.75;;;28.50;68.31
40708;BME280;26392;42.696;23.350;2023-06-22T08:22:35;95732.84;;;28.77;66.51
40708;BME280;26392;42.696;23.350;2023-06-22T08:25:02;95734.53;;;29.14;66.10
40708;BME280;26392;42.696;23.350;2023-06-22T08:27:29;95717.63;;;29.45;62.14
40708;BME280;26392;42.696;23.350;2023-06-22T08:29:57;95714.72;;;29.77;58.07
40708;BME280;26392;42.696;23.350;2023-06-22T08:32:24;95721.06;;;29.74;56.63
40708;BME280;26392;42.696;23.350;2023-06-22T08:34:52;95722.94;;;29.86;56.36
40708;BME280;26392;42.696;23.350;2023-06-22T08:37:17;95719.81;;;29.72;55.77
40708;BME280;26392;42.696;23.350;2023-06-22T08:39:43;95729.69;;;29.65;53.56
40708;BME280;26392;42.696;23.350;2023-06-22T08:42:08;95733.53;;;29.77;56.67
40708;BME280;26392;42.696;23.350;2023-06-22T08:44:34;95732.81;;;29.80;54.49
40708;BME280;26392;42.696;23.350;2023-06-22T08:46:59;95729.41;;;29.71;56.87
40708;BME280;26392;42.696;23.350;2023-06-22T08:49:24;95729.06;;;29.37;60.58
40708;BME280;26392;42.696;23.350;2023-06-22T08:51:50;95732.75;;;29.06;64.16
40708;BME280;26392;42.696;23.350;2023-06-22T08:54:18;95708.03;;;28.48;64.33
40708;BME280;26392;42.696;23.350;2023-06-22T08:56:43;95719.91;;;28.13;67.15
40708;BME280;26392;42.696;23.350;2023-06-22T08:59:09;95711.69;;;28.20;70.92
40708;BME280;26392;42.696;23.350;2023-06-22T09:01:34;95706.59;;;28.38;68.00
40708;BME280;26392;42.696;23.350;2023-06-22T09:04:00;95711.78;;;28.52;71.39
40708;BME280;26392;42.696;23.350;2023-06-22T09:06:25;95708.06;;;28.80;68.31
40708;BME280;26392;42.696;23.350;2023-06-22T09:08:51;95704.41;;;28.95;66.52
40708;BME280;26392;42.696;23.350;2023-06-22T09:11:16;95702.41;;;29.11;61.93
40708;BME280;26392;42.696;23.350;2023-06-22T09:13:42;95692.31;;;29.26;61.71
40708;BME280;26392;42.696;23.350;2023-06-22T09:16:07;95705.56;;;29.45;61.39
40708;BME280;26392;42.696;23.350;2023-06-22T09:18:36;95705.06;;;29.59;64.89
40708;BME280;26392;42.696;23.350;2023-06-22T09:21:02;95705.34;;;29.70;63.90
40708;BME280;26392;42.696;23.350;2023-06-22T09:23:27;95695.78;;;29.74;60.96
40708;BME280;26392;42.696;23.350;2023-06-22T09:25:53;95694.16;;;29.93;62.61
40708;BME280;26392;42.696;23.350;2023-06-22T09:28:18;95707.00;;;29.94;60.49
40708;BME280;26392;42.696;23.350;2023-06-22T09:30:44;95701.72;;;29.69;61.56
40708;BME280;26392;42.696;23.350;2023-06-22T09:33:12;95711.53;;;29.79;60.18
40708;BME280;26392;42.696;23.350;2023-06-22T09:35:37;95705.91;;;29.79;59.16
40708;BME280;26392;42.696;23.350;2023-06-22T09:38:03;95705.13;;;29.62;58.11
40708;BME280;26392;42.696;23.350;2023-06-22T09:40:28;95715.50;;;29.58;56.37
40708;BME280;26392;42.696;23.350;2023-06-22T09:42:54;95710.53;;;29.52;52.80
40708;BME280;26392;42.696;23.350;2023-06-22T09:45:19;95702.84;;;29.49;52.88
40708;BME280;26392;42.696;23.350;2023-06-22T09:47:45;95700.47;;;29.66;54.79
40708;BME280;26392;42.696;23.350;2023-06-22T09:50:10;95696.75;;;29.82;53.88
40708;BME280;26392;42.696;23.350;2023-06-22T09:52:35;95691.72;;;29.91;55.27
40708;BME280;26392;42.696;23.350;2023-06-22T09:55:01;95686.84;;;29.88;52.25
40708;BME280;26392;42.696;23.350;2023-06-22T09:57:29;95682.47;;;29.91;54.40
40708;BME280;26392;42.696;23.350;2023-06-22T09:59:54;95676.00;;;29.86;51.71
40708;BME280;26392;42.696;23.350;2023-06-22T10:02:20;95686.41;;;29.86;53.11
40708;BME280;26392;42.696;23.350;2023-06-22T10:04:45;95684.38;;;30.06;53.30
40708;BME280;26392;42.696;23.350;2023-06-22T10:07:11;95677.56;;;30.07;53.56
40708;BME280;26392;42.696;23.350;2023-06-22T10:09:36;95675.88;;;30.22;55.74
40708;BME280;26392;42.696;23.350;2023-06-22T10:12:02;95670.53;;;30.36;54.07
40708;BME280;26392;42.696;23.350;2023-06-22T10:14:27;95675.06;;;30.44;54.61
40708;BME280;26392;42.696;23.350;2023-06-22T10:16:54;95666.81;;;30.32;50.58
40708;BME280;26392;42.696;23.350;2023-06-22T10:19:20;95659.00;;;30.22;52.20
40708;BME280;26392;42.696;23.350;2023-06-22T10:21:45;95676.72;;;30.22;50.71
40708;BME280;26392;42.696;23.350;2023-06-22T10:24:11;95660.72;;;30.26;52.76
40708;BME280;26392;42.696;23.350;2023-06-22T10:26:36;95670.88;;;30.35;51.15
40708;BME280;26392;42.696;23.350;2023-06-22T10:29:05;95670.31;;;30.48;50.79
40708;BME280;26392;42.696;23.350;2023-06-22T10:31:31;95671.28;;;30.56;49.27
40708;BME280;26392;42.696;23.350;2023-06-22T10:33:56;95665.19;;;30.54;47.95
40708;BME280;26392;42.696;23.350;2023-06-22T10:36:22;95662.34;;;30.77;48.74
40708;BME280;26392;42.696;23.350;2023-06-22T10:38:48;95660.28;;;30.97;47.68
40708;BME280;26392;42.696;23.350;2023-06-22T10:41:14;95652.06;;;31.11;48.54
40708;BME280;26392;42.696;23.350;2023-06-22T10:43:40;95651.34;;;31.18;46.56
40708;BME280;26392;42.696;23.350;2023-06-22T10:46:06;95656.59;;;31.19;45.75
40708;BME280;26392;42.696;23.350;2023-06-22T10:48:31;95650.16;;;31.19;45.75
40708;BME280;26392;42.696;23.350;2023-06-22T10:50:57;95643.25;;;31.13;47.13
40708;BME280;26392;42.696;23.350;2023-06-22T10:53:22;95642.91;;;31.18;46.59
40708;BME280;26392;42.696;23.350;2023-06-22T10:55:48;95642.84;;;31.14;46.31
40708;BME280;26392;42.696;23.350;2023-06-22T10:58:13;95641.06;;;31.29;45.56
40708;BME280;26392;42.696;23.350;2023-06-22T11:00:39;95639.59;;;31.39;46.26
40708;BME280;26392;42.696;23.350;2023-06-22T11:03:04;95633.75;;;31.51;46.10
40708;BME280;26392;42.696;23.350;2023-06-22T11:05:30;95643.16;;;31.66;44.45
40708;BME280;26392;42.696;23.350;2023-06-22T11:07:55;95651.28;;;31.71;44.80
40708;BME280;26392;42.696;23.350;2023-06-22T11:10:20;95642.19;;;31.85;45.61
40708;BME280;26392;42.696;23.350;2023-06-22T11:12:46;95644.59;;;31.86;43.66
40708;BME280;26392;42.696;23.350;2023-06-22T11:15:11;95648.28;;;31.91;44.39
40708;BME280;26392;42.696;23.350;2023-06-22T11:17:37;95640.84;;;31.41;45.35
40708;BME280;26392;42.696;23.350;2023-06-22T11:20:03;95635.84;;;31.31;46.70
40708;BME280;26392;42.696;23.350;2023-06-22T11:22:39;95629.09;;;31.66;47.95
40708;BME280;26392;42.696;23.350;2023-06-22T11:25:05;95630.44;;;31.79;45.78
40708;BME280;26392;42.696;23.350;2023-06-22T11:27:31;95625.75;;;31.91;43.67
40708;BME280;26392;42.696;23.350;2023-06-22T11:29:56;95625.16;;;32.08;43.54
40708;BME280;26392;42.696;23.350;2023-06-22T11:32:22;95617.59;;;32.19;42.77
40708;BME280;26392;42.696;23.350;2023-06-22T11:34:47;95629.31;;;32.21;42.71
40708;BME280;26392;42.696;23.350;2023-06-22T11:37:13;95615.91;;;32.11;42.63
40708;BME280;26392;42.696;23.350;2023-06-22T11:39:38;95616.38;;;31.79;43.45
40708;BME280;26392;42.696;23.350;2023-06-22T11:42:04;95619.72;;;31.28;45.50
40708;BME280;26392;42.696;23.350;2023-06-22T11:44:29;95619.97;;;31.16;46.44
40708;BME280;26392;42.696;23.350;2023-06-22T11:46:55;95610.75;;;31.19;45.11
40708;BME280;26392;42.696;23.350;2023-06-22T11:49:20;95603.59;;;31.55;46.25
40708;BME280;26392;42.696;23.350;2023-06-22T11:51:45;95602.94;;;32.03;47.02
40708;BME280;26392;42.696;23.350;2023-06-22T11:54:11;95602.97;;;32.47;45.64
40708;BME280;26392;42.696;23.350;2023-06-22T11:56:36;95604.06;;;32.87;43.71
40708;BME280;26392;42.696;23.350;2023-06-22T11:59:02;95595.38;;;33.10;41.72
40708;BME280;26392;42.696;23.350;2023-06-22T12:01:27;95608.19;;;32.97;42.61
40708;BME280;26392;42.696;23.350;2023-06-22T12:03:52;95610.91;;;32.83;42.97
40708;BME280;26392;42.696;23.350;2023-06-22T12:06:18;95605.72;;;32.88;42.14
40708;BME280;26392;42.696;23.350;2023-06-22T12:08:43;95608.47;;;32.78;41.80
40708;BME280;26392;42.696;23.350;2023-06-22T12:11:09;95597.28;;;32.44;42.05
40708;BME280;26392;42.696;23.350;2023-06-22T12:13:34;95613.19;;;32.18;43.60
40708;BME280;26392;42.696;23.350;2023-06-22T12:15:59;95614.78;;;31.82;42.51
40708;BME280;26392;42.696;23.350;2023-06-22T12:18:25;95618.09;;;31.54;43.54
40708;BME280;26392;42.696;23.350;2023-06-22T12:20:50;95620.47;;;31.25;44.40
40708;BME280;26392;42.696;23.350;2023-06-22T12:23:16;95633.38;;;30.73;45.77
40708;BME280;26392;42.696;23.350;2023-06-22T12:25:41;95642.72;;;30.54;49.27
40708;BME280;26392;42.696;23.350;2023-06-22T12:28:06;95645.53;;;29.88;51.77
40708;BME280;26392;42.696;23.350;2023-06-22T12:30:35;95639.47;;;29.48;51.97
40708;BME280;26392;42.696;23.350;2023-06-22T12:33:00;95648.41;;;29.34;53.72
40708;BME280;26392;42.696;23.350;2023-06-22T12:35:26;95658.66;;;28.91;62.87
40708;BME280;26392;42.696;23.350;2023-06-22T12:37:51;95668.81;;;28.64;69.55
40708;BME280;26392;42.696;23.350;2023-06-22T12:40:18;95661.19;;;28.17;79.30
40708;BME280;26392;42.696;23.350;2023-06-22T12:42:45;95646.34;;;27.84;84.62
40708;BME280;26392;42.696;23.350;2023-06-22T12:45:10;95642.66;;;27.96;85.50
40708;BME280;26392;42.696;23.350;2023-06-22T12:47:36;95661.38;;;28.08;86.37
40708;BME280;26392;42.696;23.350;2023-06-22T12:50:01;95666.13;;;27.92;81.42
40708;BME280;26392;42.696;23.350;2023-06-22T12:52:26;95672.53;;;27.64;82.80
40708;BME280;26392;42.696;23.350;2023-06-22T12:54:52;95673.47;;;27.56;84.33
40708;BME280;26392;42.696;23.350;2023-06-22T12:57:17;95683.53;;;27.57;83.00